Time;durP1;ratioP1;P1;durP2;ratioP2;P2;SDS_P1;SDS_P2;PMS_P1;PMS_P2;Temp;Humidity;BMP_temperature;BMP_pressure;BME280_temperature;BME280_humidity;BME280_pressure;Samples;Min_cycle;Max_cycle;Signal;HPM_P1;HPM_P2
2023/12/06 00:01:55;;;;;;;1.67;0.60;;;5.00;33.90;;;;;;5035065;28;20602;-70
2023/12/06 00:04:20;;;;;;;2.23;0.50;;;5.00;33.00;;;;;;5035100;28;20176;-71
2023/12/06 00:06:46;;;;;;;2.10;0.67;;;4.90;33.60;;;;;;5034882;28;20644;-71
2023/12/06 00:09:11;;;;;;;1.70;0.63;;;5.00;35.00;;;;;;5034862;28;20263;-71
2023/12/06 00:11:37;;;;;;;1.50;0.43;;;5.00;34.00;;;;;;5034900;28;20214;-71
2023/12/06 00:14:02;;;;;;;1.40;0.40;;;4.90;34.60;;;;;;5034797;28;20175;-71
2023/12/06 00:16:28;;;;;;;1.50;0.50;;;4.90;35.50;;;;;;5034727;28;20183;-71
2023/12/06 00:18:54;;;;;;;2.13;0.70;;;5.00;35.30;;;;;;5034908;28;20199;-71
2023/12/06 00:21:20;;;;;;;1.97;0.53;;;5.00;35.80;;;;;;5035005;28;20194;-72
2023/12/06 00:23:46;;;;;;;1.40;0.40;;;5.00;35.80;;;;;;5034698;28;20422;-71
2023/12/06 00:26:11;;;;;;;1.50;0.50;;;5.00;37.00;;;;;;5034506;28;20543;-71
2023/12/06 00:28:37;;;;;;;1.67;0.70;;;5.00;37.50;;;;;;5034613;28;20226;-70
2023/12/06 00:31:02;;;;;;;1.60;0.50;;;4.90;38.10;;;;;;5034510;28;20196;-71
2023/12/06 00:33:28;;;;;;;1.60;0.60;;;5.00;38.70;;;;;;5034542;28;20558;-71
2023/12/06 00:35:54;;;;;;;2.20;0.70;;;5.00;38.10;;;;;;5034285;28;20198;-71
2023/12/06 00:38:19;;;;;;;3.07;0.70;;;5.00;38.10;;;;;;5034495;28;20421;-71
2023/12/06 00:40:45;;;;;;;1.80;0.60;;;5.00;38.10;;;;;;5016503;28;20555;-72
2023/12/06 00:43:19;;;;;;;1.50;0.50;;;5.00;38.10;;;;;;5034259;28;20641;-71
2023/12/06 00:45:45;;;;;;;1.90;0.70;;;4.80;38.20;;;;;;5016560;28;20519;-72
2023/12/06 00:48:10;;;;;;;1.70;0.70;;;4.90;38.10;;;;;;5034318;28;20461;-71
2023/12/06 00:50:36;;;;;;;1.80;0.50;;;4.90;38.70;;;;;;5034143;28;20712;-72
2023/12/06 00:53:01;;;;;;;2.87;1.33;;;4.80;39.50;;;;;;5016683;28;20274;-70
2023/12/06 00:55:27;;;;;;;1.60;0.50;;;4.80;40.70;;;;;;5016536;28;20654;-71
2023/12/06 00:57:52;;;;;;;1.73;0.67;;;4.80;41.20;;;;;;5033948;28;20430;-71
2023/12/06 01:00:18;;;;;;;2.00;0.77;;;4.80;41.20;;;;;;5016229;28;20206;-71
2023/12/06 01:02:44;;;;;;;3.33;0.90;;;4.80;41.00;;;;;;5034419;28;20182;-71
2023/12/06 01:05:10;;;;;;;1.70;0.60;;;4.80;42.50;;;;;;5034099;28;20510;-71
2023/12/06 01:07:35;;;;;;;1.73;0.80;;;4.80;41.90;;;;;;5015725;28;20178;-70
2023/12/06 01:10:02;;;;;;;1.83;0.67;;;4.70;41.70;;;;;;5033145;28;20410;-71
2023/12/06 01:12:27;;;;;;;1.90;0.70;;;4.70;42.90;;;;;;5033847;28;20231;-70
2023/12/06 01:14:53;;;;;;;1.40;0.40;;;4.70;42.40;;;;;;5034160;28;20422;-72
2023/12/06 01:17:18;;;;;;;1.30;0.40;;;4.80;41.80;;;;;;5015826;28;20685;-72
2023/12/06 01:19:44;;;;;;;2.73;0.80;;;4.70;42.00;;;;;;5033860;28;20198;-72
2023/12/06 01:22:09;;;;;;;2.23;0.80;;;4.80;42.50;;;;;;5033618;28;20199;-72
2023/12/06 01:24:35;;;;;;;1.50;0.50;;;4.80;42.70;;;;;;5033664;28;20212;-72
2023/12/06 01:27:00;;;;;;;1.90;0.60;;;4.90;41.50;;;;;;5033221;28;20230;-72
2023/12/06 01:29:26;;;;;;;1.80;0.60;;;4.80;41.50;;;;;;5033549;28;20240;-72
2023/12/06 01:31:52;;;;;;;1.53;0.67;;;4.70;42.90;;;;;;5033412;28;20222;-72
2023/12/06 01:34:19;;;;;;;1.60;0.50;;;4.80;41.70;;;;;;5033390;28;20180;-72
2023/12/06 01:36:44;;;;;;;1.50;0.60;;;4.80;41.20;;;;;;5033169;28;20940;-72
2023/12/06 01:39:10;;;;;;;2.00;0.80;;;4.90;41.00;;;;;;5033293;28;20406;-73
2023/12/06 01:41:35;;;;;;;1.40;0.50;;;4.90;41.40;;;;;;5033150;28;20760;-72
2023/12/06 01:44:01;;;;;;;1.50;0.50;;;4.80;40.10;;;;;;5033233;28;20204;-72
2023/12/06 01:46:27;;;;;;;1.80;0.63;;;4.80;41.10;;;;;;5033015;28;20198;-72
2023/12/06 01:48:54;;;;;;;1.50;0.50;;;4.80;40.70;;;;;;5033490;28;20333;-72
2023/12/06 01:51:20;;;;;;;2.60;0.70;;;4.90;40.60;;;;;;5032933;28;20694;-72
2023/12/06 01:53:46;;;;;;;1.67;0.70;;;4.90;39.50;;;;;;5032989;28;20410;-72
2023/12/06 01:56:12;;;;;;;1.50;0.50;;;4.80;39.00;;;;;;5015440;28;20417;-72
2023/12/06 01:58:38;;;;;;;1.40;0.40;;;4.90;38.80;;;;;;5033391;28;20221;-72
2023/12/06 02:01:05;;;;;;;1.50;0.40;;;4.90;38.70;;;;;;5033059;28;20473;-72
2023/12/06 02:03:34;;;;;;;1.40;0.50;;;4.80;38.00;;;;;;5032820;28;20500;-73
2023/12/06 02:06:06;;;;;;;1.40;0.40;;;4.90;39.00;;;;;;5032696;28;20433;-73
2023/12/06 02:08:34;;;;;;;1.40;0.40;;;4.90;38.60;;;;;;5032875;28;20418;-72
2023/12/06 02:11:00;;;;;;;1.60;0.60;;;4.90;38.50;;;;;;5032545;28;20891;-72
2023/12/06 02:13:29;;;;;;;1.67;0.43;;;4.90;39.00;;;;;;5032603;28;20453;-72
2023/12/06 02:15:56;;;;;;;1.70;0.70;;;4.90;39.80;;;;;;5032485;28;20187;-72
2023/12/06 02:18:23;;;;;;;1.60;0.70;;;4.90;39.30;;;;;;5032689;28;20414;-72
2023/12/06 02:20:48;;;;;;;1.40;0.50;;;4.90;40.00;;;;;;5014415;28;20468;-72
2023/12/06 02:23:15;;;;;;;1.40;0.50;;;4.90;38.90;;;;;;5032352;28;20414;-72
2023/12/06 02:25:42;;;;;;;1.40;0.50;;;4.80;40.50;;;;;;5032212;28;20180;-72
2023/12/06 02:28:08;;;;;;;1.50;0.50;;;4.80;40.90;;;;;;5032442;28;20414;-72
2023/12/06 02:30:33;;;;;;;1.40;0.40;;;4.70;40.40;;;;;;5032345;28;20433;-72
2023/12/06 02:32:59;;;;;;;1.40;0.40;;;4.70;40.80;;;;;;5032280;28;20419;-72
2023/12/06 02:35:35;;;;;;;1.50;0.50;;;4.70;40.50;;;;;;5032340;28;20543;-72
2023/12/06 02:38:02;;;;;;;1.33;0.40;;;4.70;39.50;;;;;;5032142;28;20210;-72
2023/12/06 02:40:30;;;;;;;1.40;0.40;;;4.70;38.30;;;;;;5014269;28;20556;-72
2023/12/06 02:42:57;;;;;;;1.40;0.40;;;4.70;38.70;;;;;;5032210;28;20406;-72
2023/12/06 02:45:22;;;;;;;1.40;0.40;;;4.70;38.80;;;;;;5032444;28;20933;-72
2023/12/06 02:47:48;;;;;;;1.50;0.47;;;4.70;39.40;;;;;;5031851;28;20491;-72
2023/12/06 02:50:14;;;;;;;1.33;0.40;;;4.70;39.30;;;;;;5031778;28;20571;-72
2023/12/06 02:52:39;;;;;;;1.40;0.50;;;4.80;38.50;;;;;;5014321;28;20190;-72
2023/12/06 02:55:05;;;;;;;1.53;0.50;;;4.80;38.90;;;;;;5031932;28;20593;-72
2023/12/06 02:57:31;;;;;;;1.40;0.40;;;4.70;37.90;;;;;;5031758;28;20432;-72
2023/12/06 02:59:56;;;;;;;1.40;0.40;;;4.70;37.90;;;;;;5031834;28;20571;-72
2023/12/06 03:02:22;;;;;;;1.40;0.40;;;4.70;38.20;;;;;;5031808;28;20192;-72
2023/12/06 03:04:47;;;;;;;1.50;0.50;;;4.80;38.40;;;;;;5031842;28;20195;-72
2023/12/06 03:07:13;;;;;;;2.00;0.60;;;4.80;37.90;;;;;;5031585;28;20178;-72
2023/12/06 03:09:39;;;;;;;1.50;0.50;;;4.70;38.00;;;;;;5014051;28;20190;-71
2023/12/06 03:12:07;;;;;;;1.40;0.40;;;4.80;38.60;;;;;;5031659;28;20220;-71
2023/12/06 03:14:32;;;;;;;1.50;0.50;;;4.70;37.70;;;;;;5031819;28;20179;-71
2023/12/06 03:16:58;;;;;;;1.43;0.40;;;4.70;38.40;;;;;;5031536;28;20932;-72
2023/12/06 03:19:23;;;;;;;1.53;0.47;;;4.70;38.40;;;;;;5031640;28;20202;-71
2023/12/06 03:21:49;;;;;;;1.90;0.60;;;4.70;37.90;;;;;;5031576;28;20266;-72
2023/12/06 03:24:14;;;;;;;1.70;0.70;;;4.80;38.00;;;;;;5031757;28;20183;-70
2023/12/06 03:26:40;;;;;;;1.50;0.40;;;4.80;37.20;;;;;;5031483;28;20551;-70
2023/12/06 03:29:05;;;;;;;1.77;0.60;;;4.80;36.70;;;;;;5031923;28;20179;-70
2023/12/06 03:31:31;;;;;;;1.50;0.57;;;4.80;37.90;;;;;;5032079;28;20248;-70
2023/12/06 03:33:56;;;;;;;1.40;0.50;;;4.80;37.40;;;;;;5035776;28;20694;-71
2023/12/06 03:36:22;;;;;;;1.40;0.47;;;4.80;37.10;;;;;;5035281;28;20596;-71
2023/12/06 03:38:47;;;;;;;2.70;0.40;;;4.80;36.90;;;;;;5035581;28;20176;-70
2023/12/06 03:41:13;;;;;;;1.77;0.50;;;4.80;36.70;;;;;;5035345;28;20260;-70
2023/12/06 03:43:38;;;;;;;1.50;0.60;;;4.80;37.20;;;;;;5035536;28;20217;-71
2023/12/06 03:46:06;;;;;;;1.80;0.50;;;4.80;37.90;;;;;;5035271;28;20179;-70
2023/12/06 03:48:32;;;;;;;1.40;0.40;;;4.80;37.10;;;;;;5035630;28;20242;-72
2023/12/06 03:50:57;;;;;;;1.40;0.40;;;4.80;37.30;;;;;;5058512;22;20477;-69
2023/12/06 03:53:23;;;;;;;1.50;0.60;;;4.70;37.90;;;;;;5035139;28;20172;-71
2023/12/06 03:55:48;;;;;;;1.50;0.40;;;4.70;37.50;;;;;;5034427;28;20521;-69
2023/12/06 03:58:14;;;;;;;1.40;0.50;;;4.70;37.60;;;;;;5034865;28;20649;-70
2023/12/06 04:00:40;;;;;;;1.60;0.60;;;4.70;37.20;;;;;;5034902;28;20483;-70
2023/12/06 04:03:08;;;;;;;2.47;0.60;;;4.70;36.70;;;;;;5032883;28;20423;-70
2023/12/06 04:05:34;;;;;;;1.50;0.50;;;4.80;37.50;;;;;;5035054;28;20182;-70
2023/12/06 04:08:00;;;;;;;1.40;0.50;;;4.80;36.40;;;;;;5034582;28;20417;-69
2023/12/06 04:10:26;;;;;;;1.70;0.60;;;4.90;36.30;;;;;;5034419;28;20663;-71
2023/12/06 04:12:51;;;;;;;1.80;0.67;;;4.80;35.90;;;;;;5034452;28;20199;-69
2023/12/06 04:15:17;;;;;;;1.50;0.53;;;4.80;35.10;;;;;;5034360;28;20580;-69
2023/12/06 04:17:42;;;;;;;1.53;0.57;;;4.80;35.70;;;;;;5034187;28;20197;-69
2023/12/06 04:20:08;;;;;;;1.40;0.50;;;4.80;36.30;;;;;;5034124;28;20206;-69
2023/12/06 04:22:35;;;;;;;1.60;0.60;;;4.80;35.70;;;;;;5034187;28;20704;-69
2023/12/06 04:25:01;;;;;;;1.40;0.47;;;4.90;35.50;;;;;;5034216;28;20418;-71
2023/12/06 04:27:27;;;;;;;4.90;1.00;;;4.90;35.30;;;;;;5032666;28;20425;-69
2023/12/06 04:29:52;;;;;;;1.43;0.50;;;4.90;35.00;;;;;;5034111;28;20807;-69
2023/12/06 04:32:18;;;;;;;1.50;0.50;;;4.90;34.20;;;;;;5034076;28;20700;-69
2023/12/06 04:34:54;;;;;;;1.50;0.50;;;4.90;35.40;;;;;;5032729;28;20650;-69
2023/12/06 04:37:20;;;;;;;1.50;0.50;;;4.90;34.40;;;;;;5033885;28;20183;-69
2023/12/06 04:39:45;;;;;;;1.50;0.50;;;4.90;35.10;;;;;;5032571;28;21057;-69
2023/12/06 04:42:11;;;;;;;1.40;0.50;;;5.00;34.60;;;;;;5033842;28;20716;-69
2023/12/06 04:44:38;;;;;;;1.40;0.40;;;5.00;34.20;;;;;;5033994;28;20175;-69
2023/12/06 04:47:03;;;;;;;1.50;0.50;;;5.00;34.50;;;;;;5033608;28;20175;-69
2023/12/06 04:49:29;;;;;;;1.83;0.50;;;5.10;34.20;;;;;;5034031;28;20414;-69
2023/12/06 04:51:54;;;;;;;1.60;0.70;;;5.10;33.70;;;;;;5033643;28;20752;-69
2023/12/06 04:54:20;;;;;;;1.87;0.70;;;5.10;34.20;;;;;;5032440;28;20205;-69
2023/12/06 04:56:45;;;;;;;1.50;0.53;;;5.10;34.20;;;;;;5033902;28;20266;-69
2023/12/06 04:59:11;;;;;;;1.50;0.60;;;5.00;33.70;;;;;;5033732;28;20186;-70
2023/12/06 05:01:37;;;;;;;1.50;0.50;;;5.10;34.00;;;;;;5033599;28;20520;-70
2023/12/06 05:04:03;;;;;;;1.40;0.40;;;5.10;34.20;;;;;;5034090;28;20199;-70
2023/12/06 05:06:28;;;;;;;1.60;0.60;;;5.10;33.70;;;;;;5032434;28;20526;-70
2023/12/06 05:08:54;;;;;;;1.60;0.50;;;5.10;34.60;;;;;;5033492;28;20504;-70
2023/12/06 05:11:19;;;;;;;1.60;0.77;;;5.00;36.10;;;;;;5032574;28;20210;-69
2023/12/06 05:13:45;;;;;;;1.50;0.43;;;5.00;36.60;;;;;;5033514;28;20183;-70
2023/12/06 05:16:11;;;;;;;1.63;0.70;;;4.80;37.10;;;;;;5031540;28;20630;-69
2023/12/06 05:18:36;;;;;;;1.50;0.60;;;4.80;38.60;;;;;;5033474;28;20179;-69
2023/12/06 05:21:02;;;;;;;1.73;0.70;;;4.80;39.80;;;;;;5032898;28;20219;-69
2023/12/06 05:23:27;;;;;;;3.20;0.80;;;4.80;39.80;;;;;;5032167;28;20240;-69
2023/12/06 05:25:53;;;;;;;1.80;0.87;;;4.90;39.60;;;;;;5032132;28;20167;-69
2023/12/06 05:28:18;;;;;;;1.90;0.77;;;4.80;40.30;;;;;;5033600;28;20183;-69
2023/12/06 05:30:44;;;;;;;1.53;0.67;;;4.80;40.90;;;;;;5032901;28;20209;-69
2023/12/06 05:33:09;;;;;;;1.63;0.57;;;4.90;40.10;;;;;;5033228;28;20176;-70
2023/12/06 05:35:35;;;;;;;1.70;1.00;;;4.80;42.00;;;;;;5032957;28;20250;-70
2023/12/06 05:38:00;;;;;;;2.73;0.90;;;4.80;42.00;;;;;;5031387;28;20206;-70
2023/12/06 05:40:26;;;;;;;2.10;0.80;;;4.80;40.90;;;;;;5032902;28;20579;-70
2023/12/06 05:42:51;;;;;;;2.30;1.37;;;4.80;41.10;;;;;;5033002;28;20688;-70
2023/12/06 05:45:17;;;;;;;2.30;1.23;;;4.80;41.90;;;;;;5031649;28;20564;-70
2023/12/06 05:47:43;;;;;;;1.80;0.87;;;4.80;43.70;;;;;;5033346;28;20190;-70
2023/12/06 05:50:11;;;;;;;1.90;1.00;;;4.90;43.10;;;;;;5032860;28;20279;-70
2023/12/06 05:52:37;;;;;;;1.60;0.90;;;4.90;43.10;;;;;;5032536;28;20577;-70
2023/12/06 05:55:03;;;;;;;1.90;0.97;;;4.90;43.70;;;;;;5032335;28;20414;-70
2023/12/06 05:57:29;;;;;;;2.97;1.27;;;4.80;44.10;;;;;;5033136;28;20432;-70
2023/12/06 05:59:55;;;;;;;1.80;0.90;;;4.80;44.40;;;;;;5032566;28;20441;-70
2023/12/06 06:02:20;;;;;;;3.17;1.57;;;4.70;45.70;;;;;;5032549;28;20195;-70
2023/12/06 06:04:46;;;;;;;2.40;0.90;;;4.80;45.60;;;;;;5032515;28;20818;-70
2023/12/06 06:07:11;;;;;;;2.93;0.87;;;4.80;44.60;;;;;;5032266;28;20180;-70
2023/12/06 06:09:37;;;;;;;2.17;0.90;;;4.70;44.20;;;;;;5032562;28;20240;-70
2023/12/06 06:12:03;;;;;;;1.77;0.80;;;4.60;44.70;;;;;;5032491;28;20195;-70
2023/12/06 06:14:29;;;;;;;2.00;0.80;;;4.60;45.40;;;;;;5032602;28;20183;-72
2023/12/06 06:16:54;;;;;;;1.60;0.70;;;4.60;45.60;;;;;;5032477;28;20893;-70
2023/12/06 06:19:20;;;;;;;1.60;0.70;;;4.60;45.20;;;;;;5032372;28;20178;-70
2023/12/06 06:21:46;;;;;;;2.20;1.00;;;4.60;45.30;;;;;;5032591;28;20205;-74
2023/12/06 06:24:11;;;;;;;2.17;1.10;;;4.50;44.90;;;;;;5032770;28;20199;-73
2023/12/06 06:26:37;;;;;;;2.80;0.93;;;4.40;45.30;;;;;;5030906;28;20179;-72
2023/12/06 06:29:02;;;;;;;2.00;0.93;;;4.30;46.60;;;;;;5032820;28;20175;-72
2023/12/06 06:31:28;;;;;;;1.57;0.70;;;4.40;46.70;;;;;;5032216;28;20225;-72
2023/12/06 06:33:54;;;;;;;2.47;1.10;;;4.30;47.40;;;;;;5032636;28;20174;-72
2023/12/06 06:36:19;;;;;;;1.63;0.80;;;4.30;46.50;;;;;;5032378;28;20168;-74
2023/12/06 06:38:46;;;;;;;2.00;0.90;;;4.20;48.20;;;;;;5032367;28;20178;-69
2023/12/06 06:41:11;;;;;;;2.33;0.77;;;4.30;47.20;;;;;;5032105;28;20701;-69
2023/12/06 06:43:37;;;;;;;1.70;0.67;;;4.20;47.20;;;;;;5032322;28;20425;-71
2023/12/06 06:46:02;;;;;;;2.80;1.10;;;4.20;47.40;;;;;;5031606;28;20439;-72
2023/12/06 06:48:28;;;;;;;1.53;0.80;;;4.20;47.20;;;;;;5031931;28;20254;-70
2023/12/06 06:50:53;;;;;;;2.33;0.90;;;4.20;47.50;;;;;;5031813;28;20213;-69
2023/12/06 06:53:19;;;;;;;2.77;1.10;;;4.30;47.40;;;;;;5032033;28;20194;-70
2023/12/06 06:55:45;;;;;;;1.90;0.90;;;4.30;46.40;;;;;;5030402;28;20179;-70
2023/12/06 06:58:10;;;;;;;2.27;1.17;;;4.30;45.90;;;;;;5031930;28;20191;-70
2023/12/06 07:00:36;;;;;;;2.10;0.90;;;4.30;45.90;;;;;;5031577;28;20321;-70
2023/12/06 07:03:01;;;;;;;2.13;0.97;;;4.30;45.80;;;;;;5031676;28;20182;-70
2023/12/06 07:05:27;;;;;;;2.47;1.07;;;4.40;45.50;;;;;;5030171;28;20265;-70
2023/12/06 07:07:52;;;;;;;5.57;0.90;;;4.40;44.50;;;;;;5030806;28;20178;-71
2023/12/06 07:10:18;;;;;;;2.03;1.23;;;4.40;44.90;;;;;;5031403;28;20586;-70
2023/12/06 07:12:43;;;;;;;2.60;1.20;;;4.40;44.70;;;;;;5030019;28;20750;-69
2023/12/06 07:15:14;;;;;;;2.80;0.97;;;4.40;44.40;;;;;;5031414;28;20179;-70
2023/12/06 07:17:41;;;;;;;1.90;0.90;;;4.50;42.80;;;;;;5031263;28;20175;-70
2023/12/06 07:20:08;;;;;;;1.90;1.03;;;4.50;43.20;;;;;;5030037;28;20457;-70
2023/12/06 07:22:34;;;;;;;1.63;0.60;;;4.50;42.90;;;;;;5031248;28;20480;-70
2023/12/06 07:24:59;;;;;;;1.73;0.90;;;4.50;43.60;;;;;;5031440;28;20885;-70
2023/12/06 07:27:25;;;;;;;1.80;0.77;;;4.50;43.40;;;;;;5029831;28;20202;-69
2023/12/06 07:29:50;;;;;;;2.00;0.90;;;4.50;42.80;;;;;;5031633;28;20582;-70
2023/12/06 07:32:16;;;;;;;3.00;0.90;;;4.50;43.30;;;;;;5031539;28;20203;-71
2023/12/06 07:34:42;;;;;;;3.27;0.97;;;4.60;42.80;;;;;;5031130;28;20187;-69
2023/12/06 07:37:07;;;;;;;2.70;1.27;;;4.70;42.30;;;;;;5031015;28;20464;-69
2023/12/06 07:39:33;;;;;;;2.23;0.80;;;4.70;41.80;;;;;;5031024;28;20588;-69
2023/12/06 07:41:59;;;;;;;2.60;0.73;;;4.70;41.60;;;;;;5029311;28;20203;-70
2023/12/06 07:44:24;;;;;;;4.60;1.23;;;4.80;42.00;;;;;;5028214;28;20546;-69
2023/12/06 07:46:49;;;;;;;2.40;1.50;;;4.80;41.70;;;;;;5030720;28;20214;-69
2023/12/06 07:49:15;;;;;;;2.90;1.37;;;4.80;41.80;;;;;;5030739;28;20206;-70
2023/12/06 07:51:41;;;;;;;2.00;1.23;;;4.80;41.40;;;;;;5030028;28;20283;-68
2023/12/06 07:54:08;;;;;;;2.37;1.00;;;4.90;41.60;;;;;;5029753;28;20294;-69
2023/12/06 07:56:33;;;;;;;1.90;0.90;;;4.90;40.60;;;;;;5030183;28;21029;-69
2023/12/06 07:59:00;;;;;;;2.27;1.00;;;4.90;40.30;;;;;;5029369;28;20436;-68
2023/12/06 08:01:31;;;;;;;2.20;1.20;;;4.90;40.60;;;;;;5029694;28;20207;-68
2023/12/06 08:03:57;;;;;;;2.30;1.40;;;5.00;40.40;;;;;;5030529;28;20434;-69
2023/12/06 08:06:23;;;;;;;2.40;1.23;;;5.00;40.80;;;;;;5032265;28;20505;-69
2023/12/06 08:08:53;;;;;;;2.40;1.30;;;5.10;39.80;;;;;;5022148;28;20438;-69
2023/12/06 08:11:21;;;;;;;1.80;1.03;;;5.80;39.90;;;;;;5014479;28;20458;-69
2023/12/06 08:13:47;;;;;;;1.73;0.70;;;5.10;39.20;;;;;;5019199;28;20484;-69
2023/12/06 08:16:13;;;;;;;2.17;1.30;;;5.00;38.20;;;;;;5010981;28;20419;-69
2023/12/06 08:18:38;;;;;;;2.43;1.00;;;5.00;38.10;;;;;;5011929;28;20191;-69
2023/12/06 08:21:07;;;;;;;6.33;2.00;;;5.00;39.10;;;;;;5013156;28;20466;-69
2023/12/06 08:23:33;;;;;;;3.30;1.70;;;5.20;38.30;;;;;;5024901;28;20337;-69
2023/12/06 08:25:59;;;;;;;3.10;1.10;;;5.10;37.60;;;;;;5023984;28;20481;-69
2023/12/06 08:28:25;;;;;;;2.97;1.57;;;5.10;38.20;;;;;;5014486;28;20803;-68
2023/12/06 08:30:50;;;;;;;3.43;1.30;;;5.10;38.30;;;;;;5014411;28;20188;-69
2023/12/06 08:33:18;;;;;;;2.37;1.07;;;5.10;39.00;;;;;;5014476;28;20554;-69
2023/12/06 08:35:43;;;;;;;1.70;0.90;;;5.10;38.20;;;;;;5014193;28;20176;-69
2023/12/06 08:38:09;;;;;;;2.27;1.10;;;5.20;38.30;;;;;;5014290;28;20422;-68
2023/12/06 08:40:34;;;;;;;1.73;0.90;;;5.10;38.20;;;;;;5014812;28;20220;-69
2023/12/06 08:43:00;;;;;;;1.93;0.93;;;5.10;38.40;;;;;;5014172;28;20176;-70
2023/12/06 08:45:25;;;;;;;2.67;1.23;;;5.10;38.20;;;;;;5014058;28;20270;-69
2023/12/06 08:47:51;;;;;;;1.80;0.87;;;5.20;38.30;;;;;;5013927;28;20176;-69
2023/12/06 08:50:17;;;;;;;2.90;1.23;;;5.10;38.20;;;;;;5014115;28;20216;-69
2023/12/06 08:52:44;;;;;;;2.30;1.30;;;5.10;39.20;;;;;;5013941;28;20220;-70
2023/12/06 08:55:10;;;;;;;4.00;0.90;;;5.20;38.90;;;;;;5014006;28;20184;-70
2023/12/06 08:57:35;;;;;;;3.40;1.20;;;5.20;37.50;;;;;;5012534;28;20429;-71
2023/12/06 09:00:02;;;;;;;3.27;1.67;;;5.30;37.90;;;;;;5015322;28;20200;-74
2023/12/06 09:02:27;;;;;;;2.30;1.20;;;5.50;37.80;;;;;;5013762;28;20194;-69
2023/12/06 09:04:55;;;;;;;2.63;1.37;;;5.50;36.50;;;;;;5013724;28;20407;-70
2023/12/06 09:07:20;;;;;;;2.07;1.30;;;5.50;35.40;;;;;;5019069;28;20190;-69
2023/12/06 09:09:46;;;;;;;7.57;2.00;;;5.50;35.40;;;;;;5033352;28;20430;-70
2023/12/06 09:12:11;;;;;;;2.70;1.60;;;5.50;34.20;;;;;;5033468;28;20199;-69
2023/12/06 09:14:37;;;;;;;2.00;1.27;;;5.50;35.50;;;;;;5033527;28;20643;-70
2023/12/06 09:17:03;;;;;;;2.87;1.30;;;5.60;34.60;;;;;;5033120;28;20183;-69
2023/12/06 09:19:30;;;;;;;2.10;1.23;;;5.70;33.60;;;;;;5032003;28;20576;-69
2023/12/06 09:21:55;;;;;;;2.30;1.50;;;5.80;33.60;;;;;;5033045;28;20204;-70
2023/12/06 09:24:21;;;;;;;3.00;1.33;;;5.80;33.10;;;;;;5033618;28;20418;-69
2023/12/06 09:26:46;;;;;;;2.63;1.77;;;5.80;32.50;;;;;;5033343;28;20176;-70
2023/12/06 09:29:13;;;;;;;3.30;1.90;;;5.80;32.30;;;;;;5013630;28;20265;-69
2023/12/06 09:31:38;;;;;;;3.00;1.83;;;5.90;31.40;;;;;;5013562;28;20200;-73
2023/12/06 09:34:04;;;;;;;3.40;1.60;;;5.80;32.40;;;;;;5013392;28;20415;-71
2023/12/06 09:36:31;;;;;;;4.77;1.73;;;5.80;32.20;;;;;;5014099;28;20187;-70
2023/12/06 09:38:57;;;;;;;4.43;2.13;;;6.10;31.80;;;;;;5026200;28;20476;-71
2023/12/06 09:41:30;;;;;;;3.87;1.77;;;6.00;30.80;;;;;;5032963;28;20840;-71
2023/12/06 09:43:56;;;;;;;3.40;1.73;;;6.00;30.50;;;;;;5030972;28;20424;-70
2023/12/06 09:46:22;;;;;;;4.57;2.10;;;6.00;30.00;;;;;;5032336;28;20476;-70
2023/12/06 09:48:48;;;;;;;5.33;1.70;;;6.00;30.70;;;;;;5031525;28;20430;-70
2023/12/06 09:51:15;;;;;;;3.83;1.73;;;6.00;31.10;;;;;;5032509;28;20467;-70
2023/12/06 09:53:41;;;;;;;3.93;2.00;;;6.00;31.70;;;;;;5032586;28;20526;-70
2023/12/06 09:56:10;;;;;;;4.03;2.43;;;6.30;29.20;;;;;;5030951;28;20525;-71
2023/12/06 09:58:36;;;;;;;3.73;1.90;;;6.40;29.20;;;;;;5031087;28;20611;-69
2023/12/06 10:01:05;;;;;;;3.07;1.50;;;6.30;28.60;;;;;;5032208;28;20499;-70
2023/12/06 10:03:32;;;;;;;3.57;1.80;;;6.00;29.00;;;;;;5031090;28;20926;-71
2023/12/06 10:05:59;;;;;;;2.97;1.43;;;5.90;29.70;;;;;;5032324;28;20754;-70
2023/12/06 10:08:25;;;;;;;2.87;1.80;;;5.70;30.20;;;;;;5032289;28;20414;-72
2023/12/06 10:11:08;;;;;;;2.80;2.00;;;5.70;30.80;;;;;;5032395;28;20429;-72
2023/12/06 10:13:41;;;;;;;5.10;3.20;;;5.60;30.00;;;;;;5032394;28;20525;-71
2023/12/06 10:16:17;;;;;;;3.20;2.30;;;5.60;30.20;;;;;;5031772;28;20429;-71
2023/12/06 10:18:49;;;;;;;3.30;2.47;;;5.70;31.30;;;;;;5032333;28;20494;-72
2023/12/06 10:21:21;;;;;;;4.87;2.20;;;5.60;30.80;;;;;;5032273;28;20470;-72
2023/12/06 10:23:54;;;;;;;3.20;2.17;;;5.80;30.90;;;;;;5032146;28;20414;-72
2023/12/06 10:26:20;;;;;;;3.87;2.50;;;5.70;29.80;;;;;;5031692;28;20429;-71
2023/12/06 10:28:46;;;;;;;3.77;2.00;;;5.60;30.20;;;;;;5032428;28;20892;-71
2023/12/06 10:31:12;;;;;;;4.20;3.00;;;5.50;29.60;;;;;;5032111;28;20211;-71
2023/12/06 10:33:39;;;;;;;4.13;2.77;;;5.50;29.90;;;;;;5029952;28;20558;-72
2023/12/06 10:36:08;;;;;;;4.13;3.00;;;5.50;29.60;;;;;;5033355;28;20479;-72
2023/12/06 10:38:37;;;;;;;4.40;2.50;;;5.50;29.60;;;;;;5031114;28;20517;-70
2023/12/06 10:41:06;;;;;;;3.90;3.20;;;5.60;28.70;;;;;;5032307;28;20840;-71
2023/12/06 10:43:33;;;;;;;5.60;3.30;;;5.60;29.10;;;;;;5032472;28;20757;-70
2023/12/06 10:45:59;;;;;;;4.83;3.03;;;5.60;28.70;;;;;;5031993;28;20448;-70
2023/12/06 10:48:25;;;;;;;4.23;2.80;;;5.50;28.90;;;;;;5015451;28;20751;-70
2023/12/06 10:50:51;;;;;;;4.60;3.33;;;5.30;29.30;;;;;;5011341;28;20423;-70
2023/12/06 10:53:17;;;;;;;4.03;3.47;;;5.30;29.60;;;;;;5012701;28;20411;-70
2023/12/06 10:55:44;;;;;;;4.93;3.77;;;5.30;28.60;;;;;;5012729;28;20604;-70
2023/12/06 10:58:14;;;;;;;5.63;3.80;;;5.30;28.50;;;;;;5012956;28;20831;-71
2023/12/06 11:00:41;;;;;;;5.37;4.27;;;5.30;28.60;;;;;;5012552;28;20489;-71
2023/12/06 11:03:07;;;;;;;7.30;4.33;;;5.30;28.50;;;;;;5027740;28;20423;-71
2023/12/06 11:05:39;;;;;;;5.10;3.80;;;5.30;28.60;;;;;;5012475;28;20469;-70
2023/12/06 11:08:35;;;;;;;5.03;3.60;;;5.40;27.90;;;;;;5012563;28;20198;-70
2023/12/06 11:11:26;;;;;;;5.03;3.53;;;5.40;27.50;;;;;;5012239;28;20497;-69
2023/12/06 11:14:09;;;;;;;5.73;3.80;;;5.30;28.30;;;;;;5013390;28;20426;-72
2023/12/06 11:17:04;;;;;;;7.43;4.43;;;5.20;28.50;;;;;;5012590;28;20425;-71
2023/12/06 11:19:31;;;;;;;5.33;3.73;;;5.20;28.50;;;;;;5012040;28;20430;-70
2023/12/06 11:21:57;;;;;;;6.10;4.20;;;5.00;28.90;;;;;;5012019;28;20438;-71
2023/12/06 11:24:23;;;;;;;7.37;5.37;;;5.00;28.40;;;;;;5012386;28;20410;-71
2023/12/06 11:26:50;;;;;;;6.07;4.83;;;5.10;28.90;;;;;;5012024;28;20536;-71
2023/12/06 11:29:17;;;;;;;6.33;4.23;;;5.20;28.50;;;;;;5025244;28;20425;-71
2023/12/06 11:31:43;;;;;;;6.30;4.40;;;5.10;28.70;;;;;;5015181;28;20447;-72
2023/12/06 11:34:09;;;;;;;7.00;4.30;;;5.20;28.30;;;;;;5012437;28;20422;-72
2023/12/06 11:36:37;;;;;;;5.80;4.10;;;5.20;27.80;;;;;;5011759;28;20211;-72
2023/12/06 11:39:14;;;;;;;7.43;5.27;;;5.20;28.50;;;;;;5011865;28;20776;-70
2023/12/06 11:41:53;;;;;;;5.00;3.90;;;5.20;27.70;;;;;;5011696;28;20445;-69
2023/12/06 11:44:19;;;;;;;4.93;3.97;;;5.20;27.20;;;;;;5027561;28;20448;-70
2023/12/06 11:46:55;;;;;;;6.30;4.87;;;5.20;28.20;;;;;;5031263;28;20913;-70
2023/12/06 11:52:22;;;;;;;5.63;5.03;;;5.20;26.90;;;;;;5032223;28;20541;-73
2023/12/06 11:54:49;;;;;;;6.87;4.37;;;5.10;28.40;;;;;;5034306;28;20465;-72
2023/12/06 11:57:15;;;;;;;6.27;4.37;;;5.10;27.30;;;;;;5033972;28;20179;-71
2023/12/06 11:59:41;;;;;;;5.23;4.10;;;5.10;28.40;;;;;;5015862;28;20990;-70
2023/12/06 12:02:08;;;;;;;6.90;4.97;;;5.10;27.70;;;;;;5015538;28;20477;-71
2023/12/06 12:04:34;;;;;;;5.90;4.63;;;5.10;28.60;;;;;;5030312;28;20789;-71
2023/12/06 12:07:00;;;;;;;6.00;4.60;;;5.10;28.40;;;;;;5014522;28;20434;-71
2023/12/06 12:09:29;;;;;;;9.00;5.23;;;5.10;28.60;;;;;;5016234;28;20853;-72
2023/12/06 12:11:54;;;;;;;5.47;4.73;;;5.20;28.50;;;;;;5016629;28;20624;-71
2023/12/06 12:14:20;;;;;;;6.17;5.57;;;5.10;29.00;;;;;;5033013;28;20423;-71
2023/12/06 12:16:46;;;;;;;7.40;5.10;;;5.10;28.70;;;;;;5021141;28;20237;-71
2023/12/06 12:19:13;;;;;;;6.30;5.13;;;5.10;28.70;;;;;;5017350;28;20655;-71
2023/12/06 12:21:39;;;;;;;7.07;5.07;;;5.10;28.70;;;;;;5014266;28;20480;-71
2023/12/06 12:24:05;;;;;;;5.07;4.27;;;5.00;30.00;;;;;;5024021;28;20556;-69
2023/12/06 12:26:31;;;;;;;8.83;6.00;;;5.00;29.40;;;;;;5025957;28;20916;-70
2023/12/06 12:28:58;;;;;;;6.03;4.53;;;4.90;29.80;;;;;;5016283;28;20503;-72
2023/12/06 12:31:30;;;;;;;7.67;5.83;;;4.90;30.30;;;;;;5017062;28;20215;-70
2023/12/06 12:33:56;;;;;;;7.60;4.87;;;4.90;29.80;;;;;;5016656;28;20791;-71
2023/12/06 12:36:24;;;;;;;7.90;5.20;;;4.90;30.20;;;;;;5016719;28;20425;-71
2023/12/06 12:38:50;;;;;;;9.10;6.53;;;4.90;29.80;;;;;;5016130;28;20438;-71
2023/12/06 12:41:15;;;;;;;5.73;4.50;;;4.90;29.90;;;;;;5017316;28;20577;-70
2023/12/06 12:43:41;;;;;;;5.97;5.20;;;4.90;29.20;;;;;;5016553;28;20432;-71
2023/12/06 12:46:07;;;;;;;5.77;4.63;;;4.90;29.40;;;;;;5015211;28;20260;-69
2023/12/06 12:48:33;;;;;;;10.27;6.10;;;4.80;29.90;;;;;;5013265;28;20242;-73
2023/12/06 12:51:13;;;;;;;6.37;5.07;;;4.80;30.00;;;;;;5014482;28;20219;-69
2023/12/06 12:53:42;;;;;;;7.33;5.53;;;4.70;30.00;;;;;;5015998;28;20418;-71
2023/12/06 12:56:09;;;;;;;9.17;6.37;;;4.80;30.00;;;;;;5032594;28;20451;-70
2023/12/06 12:58:38;;;;;;;6.67;4.77;;;4.70;30.20;;;;;;5030494;28;20474;-70